createdAt,value
2023-02-14T00:01:31.832Z,15.55
2023-02-14T00:04:01.409Z,16.55
2023-02-14T00:06:32.786Z,20.33
2023-02-14T00:09:01.093Z,20.83
2023-02-14T00:11:29.866Z,20.38
2023-02-14T00:14:15.271Z,19.60
2023-02-14T00:16:45.349Z,19.35
2023-02-14T00:19:14.555Z,16.92
2023-02-14T00:21:43.412Z,17.63
2023-02-14T00:24:13.189Z,16.63
2023-02-14T00:26:41.735Z,17.77
2023-02-14T00:29:11.668Z,21.30
2023-02-14T00:31:40.550Z,21.95
2023-02-14T00:34:10.501Z,23.63
2023-02-14T00:36:39.522Z,23.17
2023-02-14T00:39:09.977Z,21.65
2023-02-14T00:41:38.674Z,21.60
2023-02-14T00:44:07.770Z,24.30
2023-02-14T00:46:36.562Z,21.77
2023-02-14T00:49:05.248Z,22.30
2023-02-14T00:51:34.792Z,20.23
2023-02-14T00:54:04.043Z,16.70
2023-02-14T00:56:33.038Z,17.13
2023-02-14T00:59:01.394Z,17.20
2023-02-14T01:01:29.878Z,17.30
2023-02-14T01:03:58.927Z,15.10
2023-02-14T01:06:27.257Z,16.67
2023-02-14T01:08:56.732Z,16.85
2023-02-14T01:11:26.213Z,16.67
2023-02-14T01:13:56.904Z,16.90
2023-02-14T01:16:27.021Z,16.35
2023-02-14T01:18:57.130Z,17.55
2023-02-14T01:21:27.171Z,17.40
2023-02-14T01:24:00.720Z,18.00
2023-02-14T01:26:29.586Z,16.42
2023-02-14T01:28:58.151Z,18.27
2023-02-14T01:31:28.473Z,18.25
2023-02-14T01:33:58.779Z,18.85
2023-02-14T01:36:31.624Z,17.20
2023-02-14T01:39:03.302Z,17.05
2023-02-14T01:41:34.049Z,16.38
2023-02-14T01:44:04.249Z,17.52
2023-02-14T01:46:34.166Z,17.77
2023-02-14T01:49:07.335Z,18.30
2023-02-14T01:51:38.216Z,18.80
2023-02-14T01:54:10.859Z,20.95
2023-02-14T01:56:42.876Z,19.73
2023-02-14T01:59:17.684Z,18.70
2023-02-14T02:01:47.240Z,19.23
2023-02-14T02:04:17.962Z,20.13
2023-02-14T02:06:49.595Z,18.73
2023-02-14T02:09:23.458Z,19.00
2023-02-14T02:11:51.608Z,21.48
2023-02-14T02:14:22.244Z,22.40
2023-02-14T02:17:19.720Z,21.20
2023-02-14T02:20:33.657Z,21.40
2023-02-14T02:23:47.004Z,20.85
2023-02-14T02:27:00.141Z,20.90
2023-02-14T02:29:57.139Z,22.77
2023-02-14T02:32:55.567Z,21.75
2023-02-14T02:35:43.127Z,23.00
2023-02-14T02:38:32.381Z,20.05
2023-02-14T02:41:10.397Z,19.55
2023-02-14T02:43:50.478Z,20.25
2023-02-14T02:46:42.602Z,19.15
2023-02-14T02:49:39.413Z,19.42
2023-02-14T02:52:33.474Z,18.73
2023-02-14T02:55:07.241Z,17.85
2023-02-14T02:57:40.150Z,19.60
2023-02-14T03:00:13.558Z,20.50
2023-02-14T03:03:02.904Z,16.73
2023-02-14T03:05:35.239Z,18.98
2023-02-14T03:08:05.895Z,20.77
2023-02-14T03:10:39.259Z,19.02
2023-02-14T03:13:37.841Z,17.80
2023-02-14T03:16:24.778Z,20.52
2023-02-14T03:19:21.350Z,20.20
2023-02-14T03:21:59.574Z,19.13
2023-02-14T03:24:35.971Z,19.85
2023-02-14T03:27:11.400Z,20.08
2023-02-14T03:29:50.852Z,19.52
2023-02-14T03:32:26.266Z,20.48
2023-02-14T03:35:00.341Z,19.23
2023-02-14T03:37:34.037Z,19.02
2023-02-14T03:40:09.873Z,18.02
2023-02-14T03:42:43.831Z,18.02
2023-02-14T03:45:17.929Z,20.45
2023-02-14T03:47:48.557Z,19.73
2023-02-14T03:50:21.105Z,19.48
2023-02-14T03:52:53.590Z,22.02
2023-02-14T03:55:28.015Z,18.92
2023-02-14T03:58:02.326Z,17.98
2023-02-14T04:00:33.751Z,18.23
2023-02-14T04:03:07.190Z,18.30
2023-02-14T04:05:35.550Z,20.35
2023-02-14T04:08:03.830Z,21.65
2023-02-14T04:10:33.698Z,20.27
2023-02-14T04:13:01.809Z,19.98
2023-02-14T04:15:29.834Z,20.33
2023-02-14T04:18:15.507Z,18.58
2023-02-14T04:20:43.593Z,20.42
2023-02-14T04:23:11.842Z,18.77
2023-02-14T04:25:43.178Z,21.65
2023-02-14T04:28:11.270Z,23.33
2023-02-14T04:30:39.636Z,21.00
2023-02-14T04:33:09.127Z,21.38
2023-02-14T04:35:37.861Z,22.70
2023-02-14T04:38:06.687Z,19.55
2023-02-14T04:40:34.775Z,21.10
2023-02-14T04:43:04.707Z,20.67
2023-02-14T04:45:32.964Z,24.83
2023-02-14T04:48:01.234Z,20.98
2023-02-14T04:50:29.673Z,20.05
2023-02-14T04:52:57.778Z,19.08
2023-02-14T04:55:26.174Z,19.80
2023-02-14T04:57:54.358Z,21.65
2023-02-14T05:00:25.436Z,18.88
2023-02-14T05:02:53.542Z,19.52
2023-02-14T05:05:21.566Z,18.13
2023-02-14T05:07:49.626Z,19.40
2023-02-14T05:10:18.813Z,20.75
2023-02-14T05:12:47.314Z,21.40
2023-02-14T05:15:16.433Z,20.60
2023-02-14T05:17:45.875Z,18.00
2023-02-14T05:20:14.071Z,18.67
2023-02-14T05:22:42.249Z,19.27
2023-02-14T05:25:10.440Z,18.25
2023-02-14T05:27:38.516Z,20.30
2023-02-14T05:30:08.057Z,20.30
2023-02-14T05:32:36.070Z,20.45
2023-02-14T05:35:06.155Z,20.38
2023-02-14T05:37:34.467Z,20.17
2023-02-14T05:40:02.481Z,22.83
2023-02-14T05:42:30.803Z,21.23
2023-02-14T05:44:58.849Z,19.40
2023-02-14T05:47:27.230Z,20.77
2023-02-14T05:49:55.336Z,16.90
2023-02-14T05:52:25.271Z,19.55
2023-02-14T05:54:53.686Z,21.52
2023-02-14T05:57:22.102Z,20.30
2023-02-14T05:59:50.167Z,20.60
2023-02-14T06:02:18.270Z,19.73
2023-02-14T06:04:46.531Z,23.30
2023-02-14T06:07:14.488Z,20.92
2023-02-14T06:09:44.009Z,22.52
2023-02-14T06:12:12.248Z,21.27
2023-02-14T06:14:41.473Z,19.35
2023-02-14T06:17:10.232Z,20.60
2023-02-14T06:19:38.754Z,20.00
2023-02-14T06:22:06.911Z,18.20
2023-02-14T06:24:35.014Z,18.17
2023-02-14T06:27:04.621Z,18.63
2023-02-14T06:29:32.791Z,20.48
2023-02-14T06:32:05.935Z,19.20
2023-02-14T06:34:34.740Z,18.00
2023-02-14T06:37:03.089Z,19.83
2023-02-14T06:39:31.345Z,19.80
2023-02-14T06:41:59.449Z,20.45
2023-02-14T06:44:29.281Z,19.88
2023-02-14T06:46:57.286Z,19.67
2023-02-14T06:49:25.664Z,20.77
2023-02-14T06:51:53.648Z,20.33
2023-02-14T06:54:21.913Z,19.73
2023-02-14T06:56:50.081Z,20.27
2023-02-14T06:59:18.306Z,20.45
2023-02-14T07:01:48.045Z,22.23
2023-02-14T07:04:16.086Z,23.17
2023-02-14T07:06:44.728Z,21.55
2023-02-14T07:09:16.902Z,22.60
2023-02-14T07:11:45.816Z,21.70
2023-02-14T07:14:14.701Z,24.40
2023-02-14T07:16:42.924Z,21.35
2023-02-14T07:19:12.537Z,21.20
2023-02-14T07:21:40.765Z,22.88
2023-02-14T07:24:09.379Z,21.38
2023-02-14T07:26:37.476Z,20.35
2023-02-14T07:29:05.637Z,22.55
2023-02-14T07:31:33.741Z,23.30
2023-02-14T07:34:01.914Z,24.48
2023-02-14T07:36:39.905Z,23.50
2023-02-14T07:39:07.884Z,22.35
2023-02-14T07:41:35.902Z,21.30
2023-02-14T07:44:10.796Z,20.67
2023-02-14T07:46:38.802Z,21.40
2023-02-14T07:49:07.002Z,22.08
2023-02-14T07:51:34.941Z,19.70
2023-02-14T07:54:04.399Z,21.30
2023-02-14T07:56:32.452Z,21.67
2023-02-14T07:59:00.863Z,21.88
2023-02-14T08:01:28.929Z,20.33
2023-02-14T08:03:56.787Z,21.65
2023-02-14T08:06:26.250Z,22.17
2023-02-14T08:08:54.550Z,21.83
2023-02-14T08:11:41.373Z,21.52
2023-02-14T08:14:09.439Z,20.98
2023-02-14T08:16:38.343Z,23.67
2023-02-14T08:19:06.646Z,21.95
2023-02-14T08:21:34.839Z,20.88
2023-02-14T08:24:02.985Z,20.95
2023-02-14T08:26:32.568Z,22.52
2023-02-14T08:29:02.407Z,23.90
2023-02-14T08:31:36.602Z,24.33
2023-02-14T08:34:05.108Z,21.23
2023-02-14T08:36:33.182Z,23.27
2023-02-14T08:39:01.696Z,21.67
2023-02-14T08:41:29.846Z,21.40
2023-02-14T08:43:59.260Z,20.83
2023-02-14T08:46:27.545Z,19.63
2023-02-14T08:48:56.035Z,19.65
2023-02-14T08:51:25.982Z,19.80
2023-02-14T08:53:55.091Z,22.75
2023-02-14T08:56:25.033Z,21.08
2023-02-14T08:58:54.657Z,22.08
2023-02-14T09:01:24.206Z,19.17
2023-02-14T09:03:52.275Z,19.10
2023-02-14T09:06:21.058Z,20.80
2023-02-14T09:08:49.176Z,19.65
2023-02-14T09:11:19.617Z,20.25
2023-02-14T09:13:48.555Z,21.25
2023-02-14T09:16:18.332Z,20.92
2023-02-14T09:18:49.483Z,21.33
2023-02-14T09:21:19.214Z,21.02
2023-02-14T09:23:47.581Z,20.58
2023-02-14T09:26:17.095Z,20.65
2023-02-14T09:28:46.641Z,23.45
2023-02-14T09:31:17.238Z,20.80
2023-02-14T09:33:48.181Z,20.70
2023-02-14T09:36:33.396Z,20.25
2023-02-14T09:39:01.512Z,22.45
2023-02-14T09:41:56.565Z,21.83
2023-02-14T09:44:31.409Z,22.58
2023-02-14T09:47:06.218Z,20.92
2023-02-14T09:49:40.825Z,23.77
2023-02-14T09:52:15.730Z,22.02
2023-02-14T09:54:50.220Z,22.67
2023-02-14T09:57:26.209Z,23.13
2023-02-14T09:59:59.703Z,22.42
2023-02-14T10:02:42.962Z,22.35
2023-02-14T10:05:15.806Z,20.58
2023-02-14T10:08:01.536Z,20.40
2023-02-14T10:10:39.586Z,22.92
2023-02-14T10:13:16.004Z,22.17
2023-02-14T10:15:46.615Z,20.23
2023-02-14T10:18:19.292Z,22.33
2023-02-14T10:20:52.633Z,20.50
2023-02-14T10:23:28.643Z,20.23
2023-02-14T10:26:01.230Z,21.63
2023-02-14T10:28:33.747Z,21.70
2023-02-14T10:31:19.096Z,19.50
2023-02-14T10:33:54.543Z,20.13
2023-02-14T10:36:40.637Z,19.45
2023-02-14T10:39:25.405Z,20.17
2023-02-14T10:42:00.358Z,22.25
2023-02-14T10:44:42.688Z,20.98
2023-02-14T10:47:25.303Z,21.58
2023-02-14T10:50:00.831Z,20.23
2023-02-14T10:52:37.066Z,20.95
2023-02-14T10:55:31.548Z,24.10
2023-02-14T10:58:04.065Z,20.58
2023-02-14T11:00:36.414Z,22.30
2023-02-14T11:03:08.650Z,21.30
2023-02-14T11:05:40.345Z,21.70
2023-02-14T11:08:26.547Z,23.15
2023-02-14T11:10:56.652Z,22.55
2023-02-14T11:13:30.805Z,21.63
2023-02-14T11:16:04.105Z,22.83
2023-02-14T11:18:36.040Z,20.52
2023-02-14T11:21:08.017Z,21.52
2023-02-14T11:23:40.433Z,21.27
2023-02-14T11:26:18.408Z,20.08
2023-02-14T11:28:54.485Z,23.00
2023-02-14T11:31:31.082Z,20.50
2023-02-14T11:34:00.120Z,22.02
2023-02-14T11:36:30.920Z,22.95
2023-02-14T11:39:07.606Z,21.60
2023-02-14T11:41:50.100Z,22.00
2023-02-14T11:44:23.164Z,19.13
2023-02-14T11:46:53.661Z,22.45
2023-02-14T11:49:29.612Z,21.42
2023-02-14T11:52:01.029Z,22.63
2023-02-14T11:54:36.662Z,19.63
2023-02-14T11:57:08.658Z,20.15
2023-02-14T11:59:41.976Z,20.38
2023-02-14T12:02:24.348Z,20.40
2023-02-14T12:04:55.650Z,20.10
2023-02-14T12:07:29.703Z,20.55
2023-02-14T12:10:19.951Z,21.00
2023-02-14T12:12:53.029Z,21.60
2023-02-14T12:15:34.540Z,21.45
2023-02-14T12:18:18.964Z,20.02
2023-02-14T12:20:54.260Z,22.08
2023-02-14T12:23:27.811Z,21.75
2023-02-14T12:26:01.495Z,18.40
2023-02-14T12:28:38.519Z,19.73
2023-02-14T12:31:12.328Z,21.20
2023-02-14T12:33:41.322Z,20.35
2023-02-14T12:36:16.604Z,20.25
2023-02-14T12:38:54.493Z,19.92
2023-02-14T12:41:35.983Z,20.13
2023-02-14T12:44:07.435Z,19.30
2023-02-14T12:47:11.199Z,20.77
2023-02-14T12:50:03.989Z,21.23
2023-02-14T12:52:57.548Z,19.67
2023-02-14T12:55:41.710Z,22.25
2023-02-14T12:58:23.723Z,19.00
2023-02-14T13:01:04.426Z,20.60
2023-02-14T13:04:02.922Z,21.75
2023-02-14T13:06:32.860Z,20.75
2023-02-14T13:09:19.276Z,20.80
2023-02-14T13:11:57.806Z,19.13
2023-02-14T13:15:03.081Z,20.55
2023-02-14T13:17:38.664Z,20.17
2023-02-14T13:20:31.051Z,19.23
2023-02-14T13:23:05.277Z,18.23
2023-02-14T13:25:39.318Z,21.30
2023-02-14T13:28:13.435Z,19.55
2023-02-14T13:30:43.465Z,18.98
2023-02-14T13:33:22.420Z,20.67
2023-02-14T13:35:52.082Z,20.30
2023-02-14T13:38:20.668Z,19.92
2023-02-14T13:40:49.420Z,19.80
2023-02-14T13:43:46.449Z,19.88
2023-02-14T13:46:17.880Z,19.17
2023-02-14T13:48:58.571Z,20.27
2023-02-14T13:51:45.557Z,19.20
2023-02-14T13:54:31.250Z,19.92
2023-02-14T13:57:00.820Z,18.98
2023-02-14T13:59:31.476Z,19.05
2023-02-14T14:02:31.844Z,19.48
2023-02-14T14:05:01.316Z,19.85
2023-02-14T14:07:31.360Z,20.42
2023-02-14T14:10:02.769Z,19.75
2023-02-14T14:12:45.255Z,17.98
2023-02-14T14:15:20.543Z,20.45
2023-02-14T14:18:30.456Z,19.00
2023-02-14T14:21:00.066Z,20.92
2023-02-14T14:23:37.169Z,20.38
2023-02-14T14:26:30.775Z,18.90
2023-02-14T14:29:00.582Z,19.00
2023-02-14T14:31:29.921Z,19.20
2023-02-14T14:34:02.514Z,20.77
2023-02-14T14:36:30.729Z,18.55
2023-02-14T14:38:58.655Z,18.30
2023-02-14T14:41:31.725Z,23.10
2023-02-14T14:44:01.288Z,18.73
2023-02-14T14:46:29.633Z,19.58
2023-02-14T14:48:58.712Z,19.65
2023-02-14T14:51:30.623Z,19.00
2023-02-14T14:54:01.276Z,20.55
2023-02-14T14:56:32.573Z,19.70
2023-02-14T14:59:19.601Z,20.45
2023-02-14T15:01:48.081Z,19.15
2023-02-14T15:04:19.738Z,20.88
2023-02-14T15:06:49.718Z,21.58
2023-02-14T15:09:23.799Z,22.15
2023-02-14T15:12:11.791Z,19.58
2023-02-14T15:14:44.656Z,20.15
2023-02-14T15:17:19.316Z,19.20
2023-02-14T15:19:51.086Z,19.92
2023-02-14T15:22:21.482Z,18.80
2023-02-14T15:24:50.593Z,20.98
2023-02-14T15:27:21.210Z,19.25
2023-02-14T15:29:59.191Z,19.15
2023-02-14T15:32:31.704Z,20.73
2023-02-14T15:35:03.305Z,19.88
2023-02-14T15:37:32.552Z,21.80
2023-02-14T15:40:01.339Z,21.70
2023-02-14T15:42:32.843Z,20.10
2023-02-14T15:45:23.878Z,21.55
2023-02-14T15:47:53.837Z,20.38
2023-02-14T15:50:26.033Z,21.00
2023-02-14T15:52:56.501Z,20.50
2023-02-14T15:55:28.144Z,21.83
2023-02-14T15:57:58.961Z,20.83
2023-02-14T16:00:29.027Z,21.67
2023-02-14T16:03:02.831Z,21.40
2023-02-14T16:05:31.086Z,22.40
2023-02-14T16:08:03.552Z,21.92
2023-02-14T16:10:34.628Z,21.30
2023-02-14T16:13:04.422Z,20.05
2023-02-14T16:15:35.199Z,20.50
2023-02-14T16:18:08.125Z,20.70
2023-02-14T16:20:43.290Z,21.95
2023-02-14T16:23:33.312Z,21.77
2023-02-14T16:26:02.602Z,22.20
2023-02-14T16:28:31.606Z,24.40
2023-02-14T16:31:06.036Z,22.15
2023-02-14T16:33:36.694Z,22.60
2023-02-14T16:36:09.615Z,22.52
2023-02-14T16:38:43.614Z,20.90
2023-02-14T16:41:19.975Z,19.48
2023-02-14T16:43:48.914Z,21.27
2023-02-14T16:46:22.074Z,21.63
2023-02-14T16:48:52.137Z,21.55
2023-02-14T16:51:22.582Z,20.35
2023-02-14T16:53:51.610Z,21.38
2023-02-14T16:56:28.804Z,20.80
2023-02-14T16:58:58.787Z,22.13
2023-02-14T17:01:28.449Z,21.58
2023-02-14T17:03:56.707Z,20.65
2023-02-14T17:06:28.735Z,21.30
2023-02-14T17:08:59.551Z,20.85
2023-02-14T17:11:29.351Z,19.05
2023-02-14T17:13:57.600Z,19.85
2023-02-14T17:16:25.654Z,19.38
2023-02-14T17:18:55.273Z,21.30
2023-02-14T17:21:24.367Z,24.50
2023-02-14T17:23:52.393Z,24.05
2023-02-14T17:26:20.578Z,21.23
2023-02-14T17:28:48.674Z,23.13
2023-02-14T17:31:16.791Z,25.88
2023-02-14T17:33:44.884Z,23.48
2023-02-14T17:36:15.722Z,25.00
2023-02-14T17:38:44.898Z,26.65
2023-02-14T17:41:18.649Z,22.38
2023-02-14T17:43:47.518Z,20.98
2023-02-14T17:46:16.279Z,22.23
2023-02-14T17:48:45.541Z,20.27
2023-02-14T17:51:16.522Z,21.60
2023-02-14T17:53:44.909Z,24.60
2023-02-14T17:56:15.381Z,25.48
2023-02-14T17:58:43.785Z,24.52
2023-02-14T18:01:13.066Z,22.90
2023-02-14T18:03:41.971Z,22.95
2023-02-14T18:06:11.556Z,22.42
2023-02-14T18:08:43.539Z,20.88
2023-02-14T18:11:14.096Z,22.15
2023-02-14T18:13:42.629Z,19.55
2023-02-14T18:16:12.696Z,21.27
2023-02-14T18:18:41.585Z,21.95
2023-02-14T18:21:12.159Z,25.00
2023-02-14T18:23:41.987Z,22.92
2023-02-14T18:26:13.571Z,23.45
2023-02-14T18:28:42.127Z,23.30
2023-02-14T18:31:12.033Z,20.48
2023-02-14T18:33:40.757Z,22.52
2023-02-14T18:36:11.929Z,25.52
2023-02-14T18:38:42.287Z,29.75
2023-02-14T18:41:12.226Z,27.23
2023-02-14T18:43:41.218Z,26.00
2023-02-14T18:46:11.586Z,28.55
2023-02-14T18:48:40.408Z,25.33
2023-02-14T18:51:09.930Z,24.50
2023-02-14T18:53:38.619Z,21.85
2023-02-14T18:56:10.279Z,24.55
2023-02-14T18:58:39.112Z,26.48
2023-02-14T19:01:11.449Z,28.65
2023-02-14T19:03:40.408Z,29.48
2023-02-14T19:06:09.797Z,33.63
2023-02-14T19:08:40.466Z,26.70
2023-02-14T19:11:13.125Z,24.00
2023-02-14T19:13:45.989Z,28.35
2023-02-14T19:16:16.503Z,28.20
2023-02-14T19:18:45.026Z,24.00
2023-02-14T19:21:13.415Z,22.50
2023-02-14T19:23:42.147Z,21.05
2023-02-14T19:26:14.234Z,22.35
2023-02-14T19:28:43.480Z,24.00
2023-02-14T19:31:11.861Z,21.45
2023-02-14T19:33:40.868Z,20.45
2023-02-14T19:36:12.842Z,20.27
2023-02-14T19:38:42.144Z,20.23
2023-02-14T19:41:16.920Z,19.35
2023-02-14T19:43:45.945Z,19.98
2023-02-14T19:46:14.989Z,20.00
2023-02-14T19:48:44.648Z,18.70
2023-02-14T19:51:16.613Z,16.80
2023-02-14T19:53:45.049Z,18.30
2023-02-14T19:56:20.105Z,18.88
2023-02-14T19:58:48.616Z,19.30
2023-02-14T20:01:29.953Z,19.08
2023-02-14T20:03:58.842Z,18.98
2023-02-14T20:06:29.450Z,20.38
2023-02-14T20:08:57.789Z,21.10
2023-02-14T20:11:32.265Z,19.52
2023-02-14T20:14:01.889Z,20.88
2023-02-14T20:16:32.236Z,20.30
2023-02-14T20:19:03.021Z,21.35
2023-02-14T20:21:31.159Z,20.35
2023-02-14T20:24:00.977Z,23.75
2023-02-14T20:26:31.911Z,22.00
2023-02-14T20:29:00.723Z,24.95
2023-02-14T20:31:29.197Z,23.10
2023-02-14T20:33:57.984Z,25.10
2023-02-14T20:36:27.263Z,23.40
2023-02-14T20:38:56.423Z,23.55
2023-02-14T20:41:25.008Z,22.95
2023-02-14T20:43:55.116Z,27.83
2023-02-14T20:46:23.982Z,26.00
2023-02-14T20:48:54.196Z,24.83
2023-02-14T20:51:23.455Z,25.63
2023-02-14T20:53:57.036Z,22.83
2023-02-14T20:56:27.215Z,26.33
2023-02-14T20:58:56.791Z,22.23
2023-02-14T21:01:26.009Z,26.65
2023-02-14T21:03:55.708Z,28.08
2023-02-14T21:06:31.901Z,26.58
2023-02-14T21:09:06.781Z,32.03
2023-02-14T21:11:44.325Z,32.63
2023-02-14T21:14:22.521Z,30.60
2023-02-14T21:17:00.978Z,34.53
2023-02-14T21:19:37.479Z,32.90
2023-02-14T21:22:12.137Z,31.40
2023-02-14T21:24:49.794Z,30.70
2023-02-14T21:27:24.786Z,30.15
2023-02-14T21:29:56.169Z,32.55
2023-02-14T21:32:24.279Z,31.67
2023-02-14T21:34:52.343Z,28.92
2023-02-14T21:37:21.161Z,28.30
2023-02-14T21:39:50.180Z,27.13
2023-02-14T21:42:18.720Z,27.73
2023-02-14T21:45:04.504Z,26.80
2023-02-14T21:47:37.490Z,24.50
2023-02-14T21:50:23.864Z,23.17
2023-02-14T21:52:52.437Z,24.80
2023-02-14T21:55:20.664Z,24.25
2023-02-14T21:57:48.835Z,23.15
2023-02-14T22:00:18.080Z,22.05
2023-02-14T22:02:48.799Z,23.30
2023-02-14T22:05:17.208Z,21.77
2023-02-14T22:07:45.341Z,22.88
2023-02-14T22:10:14.178Z,20.75
2023-02-14T22:12:42.372Z,24.63
2023-02-14T22:15:10.839Z,22.98
2023-02-14T22:17:38.987Z,23.27
2023-02-14T22:20:10.394Z,21.15
2023-02-14T22:22:38.475Z,21.60
2023-02-14T22:25:07.624Z,21.23
2023-02-14T22:27:39.295Z,22.17
2023-02-14T22:30:09.431Z,20.90
2023-02-14T22:32:37.804Z,21.42
2023-02-14T22:35:06.937Z,20.75
2023-02-14T22:37:36.400Z,23.42
2023-02-14T22:40:05.170Z,21.67
2023-02-14T22:42:33.363Z,20.92
2023-02-14T22:45:01.692Z,21.35
2023-02-14T22:47:29.768Z,23.88
2023-02-14T22:50:00.061Z,22.27
2023-02-14T22:52:29.395Z,22.55
2023-02-14T22:54:58.959Z,22.00
2023-02-14T22:57:27.213Z,21.45
2023-02-14T22:59:55.272Z,18.88
2023-02-14T23:02:23.620Z,23.55
2023-02-14T23:04:52.042Z,19.05
2023-02-14T23:07:20.342Z,20.80
2023-02-14T23:09:50.376Z,20.95
2023-02-14T23:12:37.528Z,18.90
2023-02-14T23:15:23.843Z,22.13
2023-02-14T23:18:11.364Z,21.08
2023-02-14T23:20:57.095Z,21.23
2023-02-14T23:23:25.324Z,18.52
2023-02-14T23:25:53.757Z,21.63
2023-02-14T23:28:23.232Z,21.25
2023-02-14T23:30:51.461Z,22.45
2023-02-14T23:33:19.863Z,22.13
2023-02-14T23:35:47.979Z,21.95
2023-02-14T23:38:16.376Z,20.58
2023-02-14T23:41:07.256Z,20.45
2023-02-14T23:43:36.686Z,21.75
2023-02-14T23:46:05.301Z,22.15
2023-02-14T23:48:33.722Z,23.67
2023-02-14T23:51:01.849Z,23.77
2023-02-14T23:53:30.125Z,22.02
2023-02-14T23:56:02.496Z,21.95
2023-02-14T23:58:31.200Z,22.00
